createdAt,value
2023-01-10T00:01:41.743Z,99.90
2023-01-10T00:04:08.733Z,99.90
2023-01-10T00:06:35.657Z,99.90
2023-01-10T00:09:02.727Z,99.90
2023-01-10T00:11:48.396Z,99.90
2023-01-10T00:14:15.357Z,99.90
2023-01-10T00:16:42.814Z,99.90
2023-01-10T00:19:10.755Z,99.90
2023-01-10T00:21:39.752Z,99.90
2023-01-10T00:24:17.576Z,99.90
2023-01-10T00:26:51.830Z,99.90
2023-01-10T00:29:29.698Z,99.90
2023-01-10T00:31:57.260Z,99.90
2023-01-10T00:34:24.523Z,99.90
2023-01-10T00:36:51.608Z,99.90
2023-01-10T00:39:20.767Z,99.90
2023-01-10T00:42:06.598Z,99.90
2023-01-10T00:44:33.548Z,99.90
2023-01-10T00:47:00.536Z,99.90
2023-01-10T00:49:27.497Z,99.90
2023-01-10T00:51:58.186Z,99.90
2023-01-10T00:54:25.703Z,99.90
2023-01-10T00:56:52.759Z,99.90
2023-01-10T00:59:19.735Z,99.90
2023-01-10T01:01:46.833Z,99.90
2023-01-10T01:04:13.878Z,99.90
2023-01-10T01:06:42.956Z,99.90
2023-01-10T01:09:09.936Z,99.90
2023-01-10T01:11:36.881Z,99.90
2023-01-10T01:14:04.326Z,99.90
2023-01-10T01:16:31.412Z,99.90
2023-01-10T01:18:58.812Z,99.90
2023-01-10T01:21:28.699Z,99.90
2023-01-10T01:23:59.131Z,99.90
2023-01-10T01:26:26.621Z,99.90
2023-01-10T01:28:53.625Z,99.90
2023-01-10T01:31:20.596Z,99.90
2023-01-10T01:33:48.442Z,99.90
2023-01-10T01:36:15.461Z,99.90
2023-01-10T01:38:42.479Z,99.90
2023-01-10T01:41:28.871Z,99.90
2023-01-10T01:44:00.199Z,99.90
2023-01-10T01:46:28.243Z,99.90
2023-01-10T01:48:55.358Z,99.90
2023-01-10T01:51:26.912Z,99.90
2023-01-10T01:54:07.514Z,99.90
2023-01-10T01:56:53.700Z,99.90
2023-01-10T01:59:31.921Z,99.90
2023-01-10T02:02:06.072Z,99.90
2023-01-10T02:04:53.318Z,99.90
2023-01-10T02:07:22.625Z,99.90
2023-01-10T02:09:54.673Z,99.90
2023-01-10T02:12:21.720Z,99.90
2023-01-10T02:14:51.021Z,99.90
2023-01-10T02:17:18.155Z,99.90
2023-01-10T02:19:58.758Z,99.90
2023-01-10T02:23:23.940Z,99.90
2023-01-10T02:26:15.131Z,99.90
2023-01-10T02:29:17.937Z,99.90
2023-01-10T02:32:03.560Z,99.90
2023-01-10T02:34:33.348Z,99.90
2023-01-10T02:37:13.575Z,99.90
2023-01-10T02:40:00.809Z,99.90
2023-01-10T02:42:32.910Z,99.90
2023-01-10T02:45:10.080Z,99.90
2023-01-10T02:47:38.556Z,99.90
2023-01-10T02:50:28.513Z,99.90
2023-01-10T02:53:01.984Z,99.90
2023-01-10T02:55:47.622Z,99.90
2023-01-10T02:58:43.007Z,99.90
2023-01-10T03:01:19.178Z,99.90
2023-01-10T03:04:12.815Z,99.90
2023-01-10T03:06:42.590Z,99.90
2023-01-10T03:09:44.340Z,99.90
2023-01-10T03:12:29.977Z,99.90
2023-01-10T03:14:59.383Z,99.90
2023-01-10T03:17:30.653Z,99.90
2023-01-10T03:20:02.326Z,99.90
2023-01-10T03:22:31.361Z,99.90
2023-01-10T03:25:01.387Z,99.90
2023-01-10T03:27:40.248Z,99.90
2023-01-10T03:30:16.637Z,99.90
2023-01-10T03:32:44.220Z,99.90
2023-01-10T03:35:13.900Z,99.90
2023-01-10T03:37:58.938Z,99.90
2023-01-10T03:40:55.339Z,99.90
2023-01-10T03:44:05.732Z,99.90
2023-01-10T03:46:57.390Z,99.90
2023-01-10T03:49:26.102Z,99.90
2023-01-10T03:51:54.846Z,99.90
2023-01-10T03:54:21.815Z,99.90
2023-01-10T03:56:50.927Z,99.90
2023-01-10T03:59:25.573Z,99.90
2023-01-10T04:01:53.867Z,99.90
2023-01-10T04:04:22.007Z,99.90
2023-01-10T04:06:49.041Z,99.90
2023-01-10T04:09:16.080Z,99.90
2023-01-10T04:11:43.059Z,99.90
2023-01-10T04:14:10.112Z,99.90
2023-01-10T04:16:37.098Z,99.90
2023-01-10T04:19:04.137Z,99.90
2023-01-10T04:21:31.135Z,99.90
2023-01-10T04:23:58.091Z,99.90
2023-01-10T04:26:25.600Z,99.90
2023-01-10T04:28:52.580Z,99.90
2023-01-10T04:31:19.729Z,99.90
2023-01-10T04:33:46.745Z,99.90
2023-01-10T04:36:13.729Z,99.90
2023-01-10T04:38:40.688Z,99.90
2023-01-10T04:41:07.686Z,99.90
2023-01-10T04:43:35.498Z,99.60
2023-01-10T04:46:02.656Z,99.30
2023-01-10T04:48:29.736Z,98.90
2023-01-10T04:50:56.786Z,98.80
2023-01-10T04:53:23.783Z,98.70
2023-01-10T04:55:50.709Z,98.50
2023-01-10T04:58:17.720Z,98.00
2023-01-10T05:00:44.830Z,97.40
2023-01-10T05:03:11.982Z,97.00
2023-01-10T05:05:38.961Z,96.80
2023-01-10T05:08:05.960Z,96.50
2023-01-10T05:10:32.969Z,96.00
2023-01-10T05:12:59.961Z,95.60
2023-01-10T05:15:26.941Z,95.50
2023-01-10T05:18:00.973Z,95.30
2023-01-10T05:20:27.981Z,94.90
2023-01-10T05:22:54.945Z,94.50
2023-01-10T05:25:21.941Z,94.30
2023-01-10T05:27:48.909Z,93.90
2023-01-10T05:30:16.069Z,93.70
2023-01-10T05:32:43.021Z,93.50
2023-01-10T05:35:10.326Z,93.40
2023-01-10T05:37:38.140Z,93.10
2023-01-10T05:40:05.898Z,93.30
2023-01-10T05:42:32.919Z,92.90
2023-01-10T05:44:59.865Z,92.70
2023-01-10T05:47:27.208Z,92.60
2023-01-10T05:49:54.170Z,92.40
2023-01-10T05:52:21.182Z,92.30
2023-01-10T05:54:48.179Z,92.00
2023-01-10T05:57:15.177Z,91.80
2023-01-10T05:59:42.191Z,91.70
2023-01-10T06:02:09.259Z,91.30
2023-01-10T06:04:36.280Z,91.10
2023-01-10T06:07:03.376Z,90.90
2023-01-10T06:09:30.272Z,90.70
2023-01-10T06:11:57.247Z,90.50
2023-01-10T06:14:24.156Z,90.20
2023-01-10T06:16:51.061Z,90.00
2023-01-10T06:19:18.275Z,89.80
2023-01-10T06:21:45.166Z,89.50
2023-01-10T06:24:12.083Z,89.10
2023-01-10T06:26:38.993Z,89.00
2023-01-10T06:29:06.221Z,89.00
2023-01-10T06:31:33.176Z,88.90
2023-01-10T06:34:00.109Z,88.80
2023-01-10T06:36:27.054Z,88.60
2023-01-10T06:38:53.948Z,88.40
2023-01-10T06:41:20.832Z,88.30
2023-01-10T06:43:49.729Z,88.20
2023-01-10T06:46:19.515Z,88.20
2023-01-10T06:48:47.301Z,88.00
2023-01-10T06:51:15.945Z,87.90
2023-01-10T06:53:43.550Z,87.80
2023-01-10T06:56:11.111Z,87.40
2023-01-10T06:58:38.922Z,87.00
2023-01-10T07:01:14.912Z,86.80
2023-01-10T07:03:42.376Z,86.50
2023-01-10T07:06:12.616Z,86.50
2023-01-10T07:08:41.543Z,86.40
2023-01-10T07:11:09.629Z,86.40
2023-01-10T07:13:36.880Z,86.00
2023-01-10T07:16:21.813Z,85.90
2023-01-10T07:18:48.837Z,85.40
2023-01-10T07:21:18.388Z,85.50
2023-01-10T07:23:49.426Z,85.30
2023-01-10T07:26:18.919Z,85.20
2023-01-10T07:28:51.176Z,85.10
2023-01-10T07:31:23.861Z,85.20
2023-01-10T07:33:52.285Z,85.00
2023-01-10T07:36:19.965Z,84.90
2023-01-10T07:38:46.979Z,84.70
2023-01-10T07:41:14.007Z,86.10
2023-01-10T07:43:41.096Z,85.50
2023-01-10T07:46:09.643Z,82.90
2023-01-10T07:48:36.929Z,78.60
2023-01-10T07:51:05.149Z,74.60
2023-01-10T07:53:32.743Z,71.30
2023-01-10T07:56:01.555Z,67.10
2023-01-10T07:58:29.494Z,64.00
2023-01-10T08:01:00.099Z,62.00
2023-01-10T08:03:28.001Z,58.80
2023-01-10T08:06:02.526Z,56.50
2023-01-10T08:08:30.063Z,52.80
2023-01-10T08:10:59.552Z,51.70
2023-01-10T08:13:26.892Z,49.20
2023-01-10T08:15:53.872Z,47.20
2023-01-10T08:18:22.894Z,45.00
2023-01-10T08:20:54.004Z,43.30
2023-01-10T08:23:21.630Z,41.50
2023-01-10T08:25:49.156Z,41.40
2023-01-10T08:28:16.181Z,40.20
2023-01-10T08:30:43.356Z,39.00
2023-01-10T08:33:12.151Z,37.90
2023-01-10T08:35:43.547Z,36.70
2023-01-10T08:38:11.092Z,35.90
2023-01-10T08:40:38.574Z,35.50
2023-01-10T08:43:07.934Z,34.70
2023-01-10T08:45:35.893Z,34.60
2023-01-10T08:48:03.928Z,34.60
2023-01-10T08:50:31.837Z,34.20
2023-01-10T08:52:59.946Z,33.90
2023-01-10T08:55:28.241Z,33.40
2023-01-10T08:57:55.374Z,32.30
2023-01-10T09:00:22.870Z,33.20
2023-01-10T09:02:49.875Z,33.40
2023-01-10T09:05:32.267Z,33.80
2023-01-10T09:08:00.997Z,34.10
2023-01-10T09:10:31.085Z,35.10
2023-01-10T09:12:59.825Z,35.20
2023-01-10T09:15:32.224Z,35.60
2023-01-10T09:18:02.089Z,36.20
2023-01-10T09:20:30.080Z,36.50
2023-01-10T09:22:58.459Z,36.40
2023-01-10T09:25:25.814Z,36.80
2023-01-10T09:28:00.413Z,37.40
2023-01-10T09:30:29.289Z,37.10
2023-01-10T09:32:57.058Z,37.10
2023-01-10T09:35:25.594Z,37.30
2023-01-10T09:38:01.257Z,37.00
2023-01-10T09:40:46.707Z,36.30
2023-01-10T09:43:49.856Z,35.50
2023-01-10T09:46:34.515Z,35.20
2023-01-10T09:49:25.397Z,35.20
2023-01-10T09:51:56.683Z,35.00
2023-01-10T09:54:31.207Z,35.80
2023-01-10T09:57:00.904Z,33.90
2023-01-10T09:59:41.428Z,34.10
2023-01-10T10:02:30.787Z,33.80
2023-01-10T10:05:18.555Z,32.30
2023-01-10T10:07:51.030Z,31.90
2023-01-10T10:10:42.534Z,32.40
2023-01-10T10:13:26.821Z,31.50
2023-01-10T10:16:16.756Z,31.20
2023-01-10T10:19:25.300Z,30.30
2023-01-10T10:22:04.414Z,28.80
2023-01-10T10:24:40.238Z,29.30
2023-01-10T10:27:45.052Z,29.10
2023-01-10T10:30:24.081Z,28.40
2023-01-10T10:33:04.281Z,28.40
2023-01-10T10:35:37.225Z,27.40
2023-01-10T10:38:17.573Z,27.50
2023-01-10T10:40:46.840Z,27.00
2023-01-10T10:43:21.146Z,27.10
2023-01-10T10:45:57.542Z,26.90
2023-01-10T10:48:29.684Z,25.80
2023-01-10T10:51:02.373Z,25.10
2023-01-10T10:53:31.043Z,25.30
2023-01-10T10:55:58.435Z,25.00
2023-01-10T10:58:26.135Z,24.20
2023-01-10T11:00:54.566Z,23.60
2023-01-10T11:03:21.560Z,23.40
2023-01-10T11:05:48.745Z,23.30
2023-01-10T11:08:19.598Z,22.60
2023-01-10T11:10:48.295Z,22.60
2023-01-10T11:13:22.287Z,22.10
2023-01-10T11:15:50.548Z,21.50
2023-01-10T11:18:25.476Z,21.40
2023-01-10T11:21:04.013Z,21.10
2023-01-10T11:23:40.475Z,21.10
2023-01-10T11:26:10.475Z,21.10
2023-01-10T11:28:38.038Z,20.80
2023-01-10T11:31:06.666Z,20.60
2023-01-10T11:33:35.746Z,20.50
2023-01-10T11:36:04.539Z,20.40
2023-01-10T11:38:32.145Z,20.40
2023-01-10T11:41:03.840Z,20.30
2023-01-10T11:43:37.307Z,20.00
2023-01-10T11:46:12.698Z,19.40
2023-01-10T11:49:19.436Z,19.10
2023-01-10T11:51:50.478Z,19.10
2023-01-10T11:54:26.130Z,19.50
2023-01-10T11:57:17.505Z,18.90
2023-01-10T11:59:58.191Z,18.80
2023-01-10T12:02:40.696Z,18.40
2023-01-10T12:05:12.058Z,18.90
2023-01-10T12:08:02.498Z,18.90
2023-01-10T12:10:29.476Z,18.30
2023-01-10T12:12:58.915Z,18.80
2023-01-10T12:15:29.699Z,18.60
2023-01-10T12:18:02.556Z,18.60
2023-01-10T12:20:32.698Z,18.30
2023-01-10T12:23:11.361Z,18.70
2023-01-10T12:25:42.748Z,18.50
2023-01-10T12:28:20.469Z,18.70
2023-01-10T12:30:53.246Z,18.20
2023-01-10T12:33:35.768Z,18.40
2023-01-10T12:36:17.862Z,18.90
2023-01-10T12:39:05.477Z,18.70
2023-01-10T12:42:02.767Z,18.60
2023-01-10T12:44:35.475Z,18.50
2023-01-10T12:47:13.555Z,18.70
2023-01-10T12:49:56.808Z,18.90
2023-01-10T12:52:45.436Z,18.70
2023-01-10T12:55:21.011Z,18.90
2023-01-10T12:57:53.467Z,19.10
2023-01-10T13:00:32.856Z,19.10
2023-01-10T13:03:12.415Z,19.20
2023-01-10T13:05:39.395Z,19.60
2023-01-10T13:08:11.785Z,19.70
2023-01-10T13:10:48.905Z,19.80
2023-01-10T13:13:52.253Z,19.60
2023-01-10T13:17:04.799Z,19.80
2023-01-10T13:19:31.848Z,19.80
2023-01-10T13:22:22.021Z,20.20
2023-01-10T13:24:59.955Z,19.90
2023-01-10T13:27:32.340Z,19.80
2023-01-10T13:30:00.012Z,20.10
2023-01-10T13:32:32.755Z,20.50
2023-01-10T13:35:19.934Z,20.00
2023-01-10T13:37:53.745Z,20.00
2023-01-10T13:40:27.523Z,20.30
2023-01-10T13:43:19.275Z,20.50
2023-01-10T13:45:46.158Z,20.80
2023-01-10T13:48:28.375Z,21.10
2023-01-10T13:51:05.660Z,20.90
2023-01-10T13:53:32.471Z,21.00
2023-01-10T13:55:59.332Z,21.30
2023-01-10T13:58:44.822Z,21.60
2023-01-10T14:01:44.725Z,21.50
2023-01-10T14:04:41.055Z,22.00
2023-01-10T14:07:23.425Z,22.50
2023-01-10T14:09:51.098Z,22.90
2023-01-10T14:12:23.580Z,22.90
2023-01-10T14:15:02.266Z,23.40
2023-01-10T14:17:30.637Z,24.00
2023-01-10T14:20:07.290Z,24.20
2023-01-10T14:22:36.235Z,24.40
2023-01-10T14:25:08.030Z,25.00
2023-01-10T14:27:38.197Z,25.70
2023-01-10T14:30:06.159Z,26.00
2023-01-10T14:32:40.854Z,26.20
2023-01-10T14:35:09.194Z,26.50
2023-01-10T14:37:53.227Z,27.20
2023-01-10T14:40:27.792Z,26.70
2023-01-10T14:42:58.600Z,27.00
2023-01-10T14:45:50.990Z,27.20
2023-01-10T14:48:27.303Z,27.40
2023-01-10T14:51:07.283Z,28.10
2023-01-10T14:53:34.633Z,28.90
2023-01-10T14:56:01.744Z,29.50
2023-01-10T14:58:28.737Z,30.10
2023-01-10T15:00:56.716Z,30.70
2023-01-10T15:03:26.048Z,31.40
2023-01-10T15:05:57.171Z,32.00
2023-01-10T15:08:27.289Z,32.70
2023-01-10T15:11:05.755Z,33.30
2023-01-10T15:13:37.165Z,33.90
2023-01-10T15:16:05.617Z,34.30
2023-01-10T15:18:43.435Z,34.60
2023-01-10T15:21:15.758Z,34.90
2023-01-10T15:23:46.214Z,35.30
2023-01-10T15:26:17.512Z,35.70
2023-01-10T15:29:04.986Z,36.20
2023-01-10T15:31:37.468Z,36.50
2023-01-10T15:34:09.651Z,36.60
2023-01-10T15:36:37.107Z,36.80
2023-01-10T15:39:04.128Z,37.10
2023-01-10T15:41:35.517Z,37.40
2023-01-10T15:44:21.609Z,37.90
2023-01-10T15:46:57.904Z,38.30
2023-01-10T15:49:25.831Z,38.60
2023-01-10T15:51:53.235Z,38.70
2023-01-10T15:54:20.073Z,38.90
2023-01-10T15:56:52.771Z,39.40
2023-01-10T15:59:46.429Z,38.90
2023-01-10T16:02:22.748Z,39.60
2023-01-10T16:04:53.929Z,40.00
2023-01-10T16:07:29.795Z,40.70
2023-01-10T16:10:01.546Z,41.20
2023-01-10T16:12:53.012Z,41.60
2023-01-10T16:15:25.898Z,42.40
2023-01-10T16:17:53.187Z,43.40
2023-01-10T16:20:45.296Z,44.20
2023-01-10T16:23:17.454Z,45.10
2023-01-10T16:25:47.192Z,45.00
2023-01-10T16:28:16.225Z,45.60
2023-01-10T16:30:46.654Z,46.30
2023-01-10T16:33:22.752Z,46.60
2023-01-10T16:35:52.321Z,47.20
2023-01-10T16:38:20.036Z,47.60
2023-01-10T16:40:51.632Z,48.00
2023-01-10T16:43:19.080Z,48.50
2023-01-10T16:45:51.201Z,48.80
2023-01-10T16:48:20.131Z,49.30
2023-01-10T16:50:48.366Z,49.70
2023-01-10T16:53:17.784Z,49.90
2023-01-10T16:55:50.758Z,50.20
2023-01-10T16:58:19.946Z,50.20
2023-01-10T17:00:52.373Z,50.20
2023-01-10T17:03:22.402Z,50.40
2023-01-10T17:05:50.897Z,50.40
2023-01-10T17:08:24.841Z,50.40
2023-01-10T17:10:56.286Z,50.20
2023-01-10T17:13:34.738Z,50.00
2023-01-10T17:16:02.117Z,49.80
2023-01-10T17:18:29.070Z,49.70
2023-01-10T17:20:58.131Z,49.50
2023-01-10T17:23:26.988Z,49.40
2023-01-10T17:26:01.855Z,49.40
2023-01-10T17:28:29.926Z,49.30
2023-01-10T17:30:57.439Z,49.10
2023-01-10T17:33:25.557Z,48.90
2023-01-10T17:35:57.576Z,48.50
2023-01-10T17:38:26.268Z,48.10
2023-01-10T17:40:54.081Z,47.60
2023-01-10T17:43:21.670Z,47.80
2023-01-10T17:45:50.941Z,48.20
2023-01-10T17:48:18.908Z,48.90
2023-01-10T17:50:47.572Z,50.00
2023-01-10T17:53:15.235Z,49.70
2023-01-10T17:55:46.916Z,50.10
2023-01-10T17:58:14.871Z,50.40
2023-01-10T18:00:41.991Z,50.70
2023-01-10T18:03:09.370Z,50.70
2023-01-10T18:05:36.593Z,50.80
2023-01-10T18:08:05.645Z,51.10
2023-01-10T18:10:33.747Z,50.90
2023-01-10T18:13:03.227Z,50.60
2023-01-10T18:15:30.534Z,50.50
2023-01-10T18:17:57.990Z,50.50
2023-01-10T18:20:25.080Z,50.50
2023-01-10T18:23:11.316Z,50.30
2023-01-10T18:25:38.312Z,50.10
2023-01-10T18:28:05.342Z,50.00
2023-01-10T18:30:32.238Z,49.50
2023-01-10T18:32:59.261Z,49.10
2023-01-10T18:35:26.919Z,48.30
2023-01-10T18:37:55.316Z,47.80
2023-01-10T18:40:22.257Z,47.40
2023-01-10T18:42:53.749Z,47.30
2023-01-10T18:45:22.500Z,46.90
2023-01-10T18:47:55.451Z,46.80
2023-01-10T18:50:23.704Z,46.90
2023-01-10T18:52:50.629Z,47.20
2023-01-10T18:55:18.011Z,47.40
2023-01-10T18:57:45.044Z,47.50
2023-01-10T19:00:12.516Z,47.60
2023-01-10T19:02:39.462Z,48.00
2023-01-10T19:05:09.730Z,48.60
2023-01-10T19:07:37.100Z,48.80
2023-01-10T19:10:04.677Z,48.90
2023-01-10T19:12:31.899Z,49.10
2023-01-10T19:14:58.939Z,49.10
2023-01-10T19:17:26.014Z,49.50
2023-01-10T19:19:54.335Z,49.80
2023-01-10T19:22:23.524Z,49.80
2023-01-10T19:24:51.205Z,49.50
2023-01-10T19:27:20.847Z,49.30
2023-01-10T19:29:49.778Z,49.20
2023-01-10T19:32:16.918Z,49.00
2023-01-10T19:34:46.295Z,48.80
2023-01-10T19:37:13.589Z,48.80
2023-01-10T19:39:40.501Z,48.80
2023-01-10T19:42:08.109Z,48.90
2023-01-10T19:44:35.217Z,49.20
2023-01-10T19:47:02.280Z,49.10
2023-01-10T19:49:35.785Z,48.70
2023-01-10T19:52:03.559Z,48.40
2023-01-10T19:54:33.787Z,48.40
2023-01-10T19:57:01.192Z,48.50
2023-01-10T19:59:31.236Z,48.60
2023-01-10T20:01:58.494Z,49.00
2023-01-10T20:04:25.523Z,49.20
2023-01-10T20:06:52.562Z,49.40
2023-01-10T20:09:20.307Z,49.30
2023-01-10T20:11:47.419Z,49.20
2023-01-10T20:14:17.425Z,49.10
2023-01-10T20:16:46.690Z,49.10
2023-01-10T20:19:15.029Z,49.00
2023-01-10T20:21:43.072Z,48.90
2023-01-10T20:24:12.585Z,48.90
2023-01-10T20:26:40.361Z,48.80
2023-01-10T20:29:07.408Z,48.70
2023-01-10T20:31:34.605Z,48.90
2023-01-10T20:34:02.261Z,49.10
2023-01-10T20:36:29.475Z,49.20
2023-01-10T20:38:56.834Z,49.20
2023-01-10T20:41:26.995Z,49.40
2023-01-10T20:43:55.389Z,49.40
2023-01-10T20:46:26.311Z,49.30
2023-01-10T20:48:55.279Z,49.20
2023-01-10T20:51:27.276Z,49.20
2023-01-10T20:53:54.966Z,49.20
2023-01-10T20:56:28.048Z,49.10
2023-01-10T20:58:55.992Z,49.40
2023-01-10T21:01:33.513Z,49.40
2023-01-10T21:04:04.186Z,49.60
2023-01-10T21:06:31.575Z,49.60
2023-01-10T21:08:58.821Z,49.60
2023-01-10T21:11:25.861Z,49.50
2023-01-10T21:13:52.819Z,49.40
2023-01-10T21:16:22.008Z,49.30
2023-01-10T21:18:49.225Z,49.30
2023-01-10T21:21:18.885Z,49.30
2023-01-10T21:23:45.895Z,49.10
2023-01-10T21:26:14.860Z,48.80
2023-01-10T21:28:47.668Z,48.90
2023-01-10T21:31:20.347Z,48.90
2023-01-10T21:33:49.028Z,49.10
2023-01-10T21:36:16.833Z,49.30
2023-01-10T21:38:45.023Z,49.40
2023-01-10T21:41:35.116Z,49.40
2023-01-10T21:44:03.335Z,49.40
2023-01-10T21:46:30.331Z,49.60
2023-01-10T21:48:57.565Z,49.60
2023-01-10T21:51:24.545Z,49.80
2023-01-10T21:53:51.523Z,50.50
2023-01-10T21:56:18.472Z,49.80
2023-01-10T21:58:46.921Z,49.90
2023-01-10T22:01:15.010Z,50.10
2023-01-10T22:03:41.956Z,50.20
2023-01-10T22:06:08.892Z,50.20
2023-01-10T22:08:36.623Z,50.30
2023-01-10T22:11:03.538Z,50.20
2023-01-10T22:13:30.577Z,50.20
2023-01-10T22:16:01.292Z,50.90
2023-01-10T22:18:30.235Z,50.10
2023-01-10T22:20:58.394Z,50.00
2023-01-10T22:23:27.294Z,49.90
2023-01-10T22:26:07.403Z,49.80
2023-01-10T22:28:34.399Z,49.70
2023-01-10T22:31:01.995Z,49.70
2023-01-10T22:33:31.929Z,49.70
2023-01-10T22:36:06.394Z,49.70
2023-01-10T22:38:34.060Z,49.60
2023-01-10T22:41:13.322Z,49.60
2023-01-10T22:43:40.488Z,49.40
2023-01-10T22:46:07.868Z,49.40
2023-01-10T22:48:35.704Z,49.30
2023-01-10T22:51:02.710Z,49.20
2023-01-10T22:53:29.653Z,49.10
2023-01-10T22:55:59.252Z,49.00
2023-01-10T22:58:26.153Z,49.00
2023-01-10T23:00:53.204Z,49.10
2023-01-10T23:03:20.172Z,49.10
2023-01-10T23:05:47.108Z,49.20
2023-01-10T23:08:14.106Z,49.20
2023-01-10T23:10:41.073Z,49.10
2023-01-10T23:13:08.957Z,49.10
2023-01-10T23:15:35.882Z,49.10
2023-01-10T23:18:02.960Z,49.00
2023-01-10T23:20:29.931Z,49.00
2023-01-10T23:22:57.038Z,49.00
2023-01-10T23:25:23.926Z,49.00
2023-01-10T23:27:50.972Z,48.90
2023-01-10T23:30:18.191Z,48.90
2023-01-10T23:32:45.122Z,48.90
2023-01-10T23:35:12.071Z,48.80
2023-01-10T23:37:39.009Z,48.80
2023-01-10T23:40:06.508Z,48.80
2023-01-10T23:42:33.412Z,48.80
2023-01-10T23:45:00.277Z,49.00
2023-01-10T23:47:27.199Z,48.90
2023-01-10T23:49:54.094Z,48.90
2023-01-10T23:52:21.079Z,48.70
2023-01-10T23:54:48.163Z,48.80
2023-01-10T23:57:15.062Z,48.90
2023-01-10T23:59:41.963Z,49.10
